Time;durP1;ratioP1;P1;durP2;ratioP2;P2;SDS_P1;SDS_P2;PMS_P1;PMS_P2;Temp;Humidity;BMP_temperature;BMP_pressure;BME280_temperature;BME280_humidity;BME280_pressure;Samples;Min_cycle;Max_cycle;Signal;HPM_P1;HPM_P2
2023/04/03 00:01:26;;;;;;;3.47;3.17;;;8.60;99.90;;;;;;5029039;28;20624;-70
2023/04/03 00:03:52;;;;;;;3.37;2.70;;;8.50;99.90;;;;;;5027440;28;20181;-71
2023/04/03 00:06:17;;;;;;;6.70;3.27;;;8.60;99.90;;;;;;5027579;28;20180;-71
2023/04/03 00:08:43;;;;;;;3.00;2.43;;;8.60;99.90;;;;;;5028159;28;20242;-72
2023/04/03 00:11:10;;;;;;;4.07;2.80;;;8.60;99.90;;;;;;5030641;28;20181;-71
2023/04/03 00:13:36;;;;;;;4.00;2.93;;;8.60;99.90;;;;;;5030916;28;21041;-71
2023/04/03 00:16:03;;;;;;;3.43;2.60;;;8.60;99.90;;;;;;5029082;28;20777;-71
2023/04/03 00:18:28;;;;;;;3.40;2.90;;;8.60;99.90;;;;;;5030273;28;20481;-71
2023/04/03 00:20:54;;;;;;;3.43;2.80;;;8.50;99.90;;;;;;5027448;28;20867;-71
2023/04/03 00:23:20;;;;;;;4.00;2.90;;;8.50;99.90;;;;;;5031390;28;20556;-71
2023/04/03 00:25:46;;;;;;;3.53;2.80;;;8.50;99.90;;;;;;5031843;28;20258;-72
2023/04/03 00:28:12;;;;;;;2.90;2.70;;;8.50;99.90;;;;;;5033019;28;21742;-71
2023/04/03 00:30:37;;;;;;;4.27;3.10;;;8.50;99.90;;;;;;5033345;28;20289;-71
2023/04/03 00:33:03;;;;;;;3.27;2.97;;;8.50;99.90;;;;;;5023195;28;20437;-71
2023/04/03 00:35:29;;;;;;;3.90;3.00;;;8.50;99.90;;;;;;5029663;28;20947;-71
2023/04/03 00:37:55;;;;;;;3.30;3.00;;;8.50;99.90;;;;;;5028526;28;20203;-71
2023/04/03 00:40:24;;;;;;;5.23;2.90;;;8.50;99.90;;;;;;5021888;28;20442;-71
2023/04/03 00:42:55;;;;;;;4.23;3.10;;;8.50;99.90;;;;;;5029420;28;20458;-71
2023/04/03 00:45:33;;;;;;;3.57;2.90;;;8.50;99.90;;;;;;5027520;28;20433;-71
2023/04/03 00:48:00;;;;;;;3.53;3.20;;;8.50;99.90;;;;;;5028537;28;20462;-70
2023/04/03 00:50:29;;;;;;;4.70;2.80;;;8.50;99.90;;;;;;5025924;28;20434;-71
2023/04/03 00:52:55;;;;;;;3.50;2.87;;;8.50;99.90;;;;;;5025994;28;20762;-71
2023/04/03 00:55:22;;;;;;;5.23;3.10;;;8.50;99.90;;;;;;5031026;28;21179;-71
2023/04/03 00:57:48;;;;;;;5.03;2.90;;;8.50;99.90;;;;;;5031590;28;20473;-72
2023/04/03 01:00:18;;;;;;;3.50;2.83;;;8.50;99.90;;;;;;5029707;28;20461;-71
2023/04/03 01:02:44;;;;;;;3.57;2.73;;;8.50;99.90;;;;;;5031650;28;20882;-70
2023/04/03 01:05:10;;;;;;;3.70;2.97;;;8.50;99.90;;;;;;5028186;28;20460;-70
2023/04/03 01:07:36;;;;;;;3.40;3.10;;;8.50;99.90;;;;;;5029983;28;20843;-70
2023/04/03 01:10:06;;;;;;;3.00;2.70;;;8.50;99.90;;;;;;5023060;28;20491;-70
2023/04/03 01:12:37;;;;;;;3.00;2.70;;;8.50;99.90;;;;;;5031654;28;20843;-70
2023/04/03 01:15:22;;;;;;;5.83;2.40;;;8.50;99.90;;;;;;5027916;28;20442;-70
2023/04/03 01:17:58;;;;;;;4.00;3.57;;;8.50;99.90;;;;;;5024687;28;20466;-70
2023/04/03 01:20:32;;;;;;;2.87;2.67;;;8.50;99.90;;;;;;5028987;28;20517;-70
2023/04/03 01:23:13;;;;;;;3.83;2.60;;;8.40;99.90;;;;;;5029226;28;21010;-71
2023/04/03 01:25:51;;;;;;;3.50;3.10;;;8.40;99.90;;;;;;5025777;28;20928;-70
2023/04/03 01:28:24;;;;;;;3.87;2.60;;;8.40;99.90;;;;;;5034991;28;20437;-71
2023/04/03 01:31:07;;;;;;;3.30;3.00;;;8.30;99.90;;;;;;5032908;28;20491;-70
2023/04/03 01:33:33;;;;;;;3.13;2.60;;;8.30;99.90;;;;;;5027559;28;20446;-70
2023/04/03 01:35:59;;;;;;;3.30;2.80;;;8.30;99.90;;;;;;5024427;28;20651;-71
2023/04/03 01:38:25;;;;;;;3.40;2.57;;;8.20;99.90;;;;;;5022723;28;20424;-70
2023/04/03 01:40:50;;;;;;;3.47;2.63;;;8.20;99.90;;;;;;5024286;28;20191;-71
2023/04/03 01:43:16;;;;;;;3.50;2.80;;;8.20;99.90;;;;;;5033305;28;20422;-69
2023/04/03 01:45:41;;;;;;;4.20;2.90;;;8.20;99.90;;;;;;5034305;28;20205;-69
2023/04/03 01:48:07;;;;;;;3.20;2.80;;;8.20;99.90;;;;;;5034936;28;20199;-69
2023/04/03 01:50:33;;;;;;;4.00;3.27;;;8.20;99.90;;;;;;5031956;28;20285;-70
2023/04/03 01:52:58;;;;;;;4.50;2.90;;;8.20;99.90;;;;;;5034477;28;20187;-70
2023/04/03 01:55:24;;;;;;;4.00;3.10;;;8.20;99.90;;;;;;5035647;28;20553;-70
2023/04/03 01:57:50;;;;;;;4.37;3.33;;;8.10;99.90;;;;;;5037287;28;20216;-70
2023/04/03 02:00:16;;;;;;;3.43;3.10;;;8.00;99.90;;;;;;5029977;28;20204;-70
2023/04/03 02:02:41;;;;;;;4.87;3.40;;;8.00;99.90;;;;;;5037184;28;20187;-69
2023/04/03 02:05:07;;;;;;;4.33;3.67;;;8.00;99.90;;;;;;5031256;28;20848;-70
2023/04/03 02:07:33;;;;;;;5.80;3.53;;;8.00;99.90;;;;;;5034367;28;20210;-70
2023/04/03 02:09:59;;;;;;;4.83;2.73;;;7.90;99.90;;;;;;5029050;28;20438;-70
2023/04/03 02:12:24;;;;;;;5.20;3.00;;;7.90;99.90;;;;;;5033975;28;20177;-71
2023/04/03 02:14:50;;;;;;;3.33;3.03;;;7.90;99.90;;;;;;5037505;28;20203;-71
2023/04/03 02:17:16;;;;;;;5.93;3.07;;;7.90;99.90;;;;;;5033344;28;20243;-71
2023/04/03 02:19:41;;;;;;;4.77;3.00;;;7.80;99.90;;;;;;5029599;28;20191;-71
2023/04/03 02:22:07;;;;;;;5.20;2.90;;;7.70;99.90;;;;;;5026662;28;20203;-71
2023/04/03 02:24:33;;;;;;;4.93;3.33;;;7.70;99.90;;;;;;5034966;28;20188;-71
2023/04/03 02:26:58;;;;;;;4.60;3.33;;;7.70;99.90;;;;;;5028250;28;20265;-71
2023/04/03 02:29:24;;;;;;;4.23;3.10;;;7.70;99.90;;;;;;5031710;28;20282;-71
2023/04/03 02:31:50;;;;;;;4.53;3.50;;;7.70;99.90;;;;;;5026481;28;20225;-70
2023/04/03 02:34:16;;;;;;;6.87;3.23;;;7.70;99.90;;;;;;5030981;28;20701;-70
2023/04/03 02:36:41;;;;;;;5.40;3.27;;;7.60;99.90;;;;;;5037637;28;20585;-70
2023/04/03 02:39:07;;;;;;;3.50;3.20;;;7.60;99.90;;;;;;5035833;28;20554;-70
2023/04/03 02:41:36;;;;;;;3.50;3.20;;;7.50;99.90;;;;;;5028056;28;20187;-70
2023/04/03 02:44:03;;;;;;;4.50;3.47;;;7.50;99.90;;;;;;5034110;28;20234;-70
2023/04/03 02:46:28;;;;;;;4.70;3.90;;;7.50;99.90;;;;;;5035774;28;20430;-69
2023/04/03 02:48:54;;;;;;;3.60;3.10;;;7.40;99.90;;;;;;5035311;28;20932;-70
2023/04/03 02:51:20;;;;;;;6.03;3.60;;;7.40;99.90;;;;;;5038591;28;20183;-70
2023/04/03 02:53:45;;;;;;;3.53;2.87;;;7.40;99.90;;;;;;5036574;28;20331;-70
2023/04/03 02:56:11;;;;;;;5.40;3.63;;;7.30;99.90;;;;;;5034896;28;20340;-70
2023/04/03 02:58:36;;;;;;;3.40;2.93;;;7.30;99.90;;;;;;5037163;28;20214;-70
2023/04/03 03:01:02;;;;;;;4.47;3.47;;;7.30;99.90;;;;;;5037818;28;20176;-71
2023/04/03 03:03:28;;;;;;;3.90;3.20;;;7.20;99.90;;;;;;5030361;28;20217;-70
2023/04/03 03:06:11;;;;;;;6.33;4.10;;;7.20;99.90;;;;;;5028600;28;20270;-70
2023/04/03 03:08:37;;;;;;;6.13;3.97;;;7.20;99.90;;;;;;5027794;28;20318;-70
2023/04/03 03:11:04;;;;;;;3.33;3.03;;;7.20;99.90;;;;;;5026117;28;20442;-71
2023/04/03 03:13:30;;;;;;;3.83;3.20;;;7.10;99.90;;;;;;5033691;28;20552;-71
2023/04/03 03:15:56;;;;;;;5.87;3.43;;;7.10;99.90;;;;;;5028740;28;20495;-70
2023/04/03 03:18:22;;;;;;;3.80;2.70;;;7.10;99.90;;;;;;5032440;28;20461;-70
2023/04/03 03:20:52;;;;;;;4.10;2.97;;;7.00;99.90;;;;;;5032063;28;20218;-70
2023/04/03 03:23:17;;;;;;;5.20;3.20;;;7.00;99.90;;;;;;5027689;28;20172;-71
2023/04/03 03:25:43;;;;;;;6.40;3.50;;;6.90;99.90;;;;;;5033544;28;20464;-71
2023/04/03 03:28:09;;;;;;;5.93;3.03;;;6.90;99.90;;;;;;5029725;28;20232;-70
2023/04/03 03:30:35;;;;;;;4.87;4.13;;;6.90;99.90;;;;;;5034273;28;20168;-70
2023/04/03 03:33:01;;;;;;;3.50;3.17;;;6.90;99.90;;;;;;5030292;28;20545;-69
2023/04/03 03:35:26;;;;;;;7.03;3.10;;;6.90;99.90;;;;;;5027579;28;20438;-70
2023/04/03 03:37:52;;;;;;;3.40;3.10;;;6.80;99.90;;;;;;5029842;28;20769;-70
2023/04/03 03:40:17;;;;;;;3.30;3.00;;;6.90;99.90;;;;;;5035089;28;20717;-71
2023/04/03 03:42:43;;;;;;;3.40;3.10;;;6.90;99.90;;;;;;5029593;28;20191;-71
2023/04/03 03:45:09;;;;;;;3.50;3.20;;;6.80;99.90;;;;;;5028086;28;20199;-70
2023/04/03 03:47:35;;;;;;;4.10;3.57;;;6.80;99.90;;;;;;5033022;28;20379;-70
2023/04/03 03:50:01;;;;;;;3.70;3.40;;;6.80;99.90;;;;;;5028230;28;20529;-70
2023/04/03 03:52:27;;;;;;;3.50;3.20;;;6.80;99.90;;;;;;5029694;28;20467;-69
2023/04/03 03:54:52;;;;;;;3.60;2.83;;;6.80;99.90;;;;;;5028483;28;20482;-70
2023/04/03 03:57:18;;;;;;;4.57;3.30;;;6.80;99.90;;;;;;5026515;28;20212;-70
2023/04/03 03:59:44;;;;;;;3.37;2.90;;;6.80;99.90;;;;;;5028844;28;20196;-69
2023/04/03 04:02:10;;;;;;;3.50;3.00;;;6.80;99.90;;;;;;5028769;28;20592;-70
2023/04/03 04:04:36;;;;;;;3.87;3.47;;;6.90;99.90;;;;;;5032084;28;20562;-70
2023/04/03 04:07:02;;;;;;;4.40;3.00;;;6.90;99.90;;;;;;5032284;28;20458;-70
2023/04/03 04:09:28;;;;;;;3.90;3.50;;;6.90;99.90;;;;;;5029745;28;21018;-70
2023/04/03 04:11:54;;;;;;;4.33;3.87;;;6.90;99.90;;;;;;5034435;28;20537;-70
2023/04/03 04:14:22;;;;;;;3.70;3.10;;;6.80;99.90;;;;;;5026720;28;20183;-70
2023/04/03 04:16:48;;;;;;;4.13;3.43;;;6.90;99.90;;;;;;5025713;28;20212;-69
2023/04/03 04:19:14;;;;;;;3.90;2.90;;;6.90;99.90;;;;;;5028495;28;20451;-71
2023/04/03 04:21:41;;;;;;;3.97;2.90;;;6.90;99.90;;;;;;5030247;28;20258;-70
2023/04/03 04:24:07;;;;;;;4.03;3.20;;;6.90;99.90;;;;;;5026605;28;20435;-71
2023/04/03 04:26:33;;;;;;;4.53;3.00;;;6.90;99.90;;;;;;5032047;28;20810;-70
2023/04/03 04:28:59;;;;;;;4.67;3.70;;;6.90;99.90;;;;;;5028127;28;20437;-70
2023/04/03 04:31:24;;;;;;;5.20;3.47;;;6.90;99.90;;;;;;5024489;28;20798;-70
2023/04/03 04:33:50;;;;;;;4.40;3.50;;;7.00;99.90;;;;;;5031575;28;20225;-70
2023/04/03 04:36:15;;;;;;;7.20;3.00;;;7.00;99.90;;;;;;5029724;28;20454;-70
2023/04/03 04:38:41;;;;;;;8.60;3.37;;;7.00;99.90;;;;;;5029267;28;20209;-70
2023/04/03 04:41:07;;;;;;;4.77;3.27;;;7.00;99.90;;;;;;5029661;28;20323;-70
2023/04/03 04:43:33;;;;;;;4.30;3.43;;;7.00;99.90;;;;;;5027018;28;20880;-69
2023/04/03 04:46:03;;;;;;;4.70;3.33;;;7.00;99.90;;;;;;5025557;28;20177;-70
2023/04/03 04:48:29;;;;;;;4.07;3.60;;;7.00;99.90;;;;;;5033618;28;20482;-70
2023/04/03 04:50:54;;;;;;;3.83;3.53;;;7.10;99.90;;;;;;5029398;28;20438;-70
2023/04/03 04:53:20;;;;;;;4.70;2.97;;;7.00;99.90;;;;;;5033749;28;20195;-69
2023/04/03 04:55:46;;;;;;;4.20;3.60;;;7.10;99.90;;;;;;5027898;28;20203;-70
2023/04/03 04:58:11;;;;;;;3.93;2.80;;;7.00;99.90;;;;;;5024371;28;20554;-70
2023/04/03 05:00:37;;;;;;;5.63;3.60;;;7.10;99.90;;;;;;5028564;28;20217;-70
2023/04/03 05:03:02;;;;;;;4.57;3.23;;;7.00;99.90;;;;;;5032956;28;20180;-69
2023/04/03 05:05:28;;;;;;;5.13;3.70;;;7.00;99.90;;;;;;5028922;28;20183;-69
2023/04/03 05:07:53;;;;;;;3.87;3.53;;;7.00;99.90;;;;;;5032345;28;20219;-70
2023/04/03 05:10:19;;;;;;;3.73;3.23;;;7.00;99.90;;;;;;5026017;28;20957;-70
2023/04/03 05:12:44;;;;;;;3.70;3.20;;;6.90;99.90;;;;;;5032760;28;20203;-70
2023/04/03 05:15:10;;;;;;;5.13;3.40;;;6.90;99.90;;;;;;5027984;28;20192;-69
2023/04/03 05:17:36;;;;;;;3.50;3.20;;;6.90;99.90;;;;;;5026380;28;20281;-72
2023/04/03 05:20:03;;;;;;;4.07;3.50;;;6.90;99.90;;;;;;5029888;28;20719;-69
2023/04/03 05:22:29;;;;;;;6.43;3.43;;;6.80;99.90;;;;;;5028086;28;20200;-70
2023/04/03 05:24:54;;;;;;;4.70;3.33;;;6.80;99.90;;;;;;5032594;28;20414;-71
2023/04/03 05:27:20;;;;;;;5.47;3.53;;;6.70;99.90;;;;;;5032413;28;20261;-70
2023/04/03 05:29:46;;;;;;;3.67;3.27;;;6.70;99.90;;;;;;5030741;28;20188;-70
2023/04/03 05:32:12;;;;;;;4.53;3.70;;;6.60;99.90;;;;;;5028435;28;20200;-71
2023/04/03 05:34:37;;;;;;;5.03;3.50;;;6.60;99.90;;;;;;5028232;28;20202;-70
2023/04/03 05:37:04;;;;;;;3.93;2.90;;;6.60;99.90;;;;;;5025990;28;20497;-71
2023/04/03 05:39:31;;;;;;;5.43;2.90;;;6.60;99.90;;;;;;5026447;28;20717;-70
2023/04/03 05:41:57;;;;;;;4.50;3.53;;;6.50;99.90;;;;;;5025670;28;20446;-70
2023/04/03 05:44:23;;;;;;;3.73;3.10;;;6.50;99.90;;;;;;5030761;28;20422;-70
2023/04/03 05:46:48;;;;;;;4.07;3.10;;;6.50;99.90;;;;;;5029284;28;20646;-71
2023/04/03 05:49:14;;;;;;;4.67;3.00;;;6.50;99.90;;;;;;5027196;28;20831;-71
2023/04/03 05:51:40;;;;;;;5.73;3.43;;;6.50;99.90;;;;;;5030955;28;20534;-69
2023/04/03 05:54:14;;;;;;;4.53;3.63;;;6.50;99.90;;;;;;5028312;28;20568;-71
2023/04/03 05:56:40;;;;;;;3.60;3.30;;;6.60;99.90;;;;;;5030588;28;20884;-71
2023/04/03 05:59:07;;;;;;;5.60;3.50;;;6.60;99.90;;;;;;5031164;28;20507;-72
2023/04/03 06:01:33;;;;;;;3.80;3.07;;;6.60;99.90;;;;;;5028155;28;20528;-71
2023/04/03 06:03:59;;;;;;;3.00;2.80;;;6.60;99.90;;;;;;5027724;28;20451;-72
2023/04/03 06:06:25;;;;;;;4.30;3.50;;;6.70;99.90;;;;;;5034183;28;20557;-71
2023/04/03 06:08:50;;;;;;;4.00;3.60;;;6.70;99.90;;;;;;5026848;28;20246;-71
2023/04/03 06:11:16;;;;;;;4.93;4.17;;;6.70;99.90;;;;;;5027645;28;20195;-71
2023/04/03 06:13:42;;;;;;;3.73;3.40;;;6.70;99.90;;;;;;5035532;28;20228;-70
2023/04/03 06:16:14;;;;;;;5.40;3.77;;;6.70;99.90;;;;;;5027178;28;20443;-70
2023/04/03 06:18:41;;;;;;;5.03;3.70;;;6.80;99.90;;;;;;5021526;28;20224;-70
2023/04/03 06:21:07;;;;;;;6.10;4.03;;;6.80;99.90;;;;;;5020887;28;20831;-70
2023/04/03 06:23:33;;;;;;;6.00;3.73;;;6.80;99.90;;;;;;5036900;28;20435;-70
2023/04/03 06:25:59;;;;;;;4.60;3.60;;;6.90;99.90;;;;;;5026490;28;20536;-70
2023/04/03 06:28:25;;;;;;;3.60;3.30;;;6.90;99.90;;;;;;5028965;28;20212;-70
2023/04/03 06:30:50;;;;;;;5.53;3.70;;;7.00;99.90;;;;;;5022630;28;20442;-69
2023/04/03 06:33:16;;;;;;;4.90;3.23;;;7.00;99.90;;;;;;5028931;28;20200;-71
2023/04/03 06:35:42;;;;;;;4.67;3.73;;;7.00;99.90;;;;;;5032649;28;20655;-70
2023/04/03 06:38:09;;;;;;;5.43;3.60;;;7.00;99.90;;;;;;5028172;28;20218;-71
2023/04/03 06:40:35;;;;;;;3.47;2.90;;;6.90;99.90;;;;;;5025458;28;20188;-71
2023/04/03 06:43:01;;;;;;;3.77;3.47;;;6.90;99.90;;;;;;5027154;28;21282;-70
2023/04/03 06:45:27;;;;;;;6.47;3.40;;;6.90;99.90;;;;;;5019645;28;20438;-74
2023/04/03 06:47:53;;;;;;;4.00;3.70;;;7.00;99.90;;;;;;5029064;28;20473;-73
2023/04/03 06:50:19;;;;;;;6.90;5.83;;;7.00;99.90;;;;;;5026931;28;20470;-73
2023/04/03 06:52:45;;;;;;;6.77;5.03;;;7.00;99.90;;;;;;5027959;28;20450;-73
2023/04/03 06:55:11;;;;;;;5.73;4.13;;;7.00;99.90;;;;;;5029122;28;20852;-73
2023/04/03 06:57:37;;;;;;;7.13;4.60;;;7.00;99.90;;;;;;5031789;28;20208;-72
2023/04/03 07:00:05;;;;;;;4.53;3.47;;;7.10;99.90;;;;;;5024686;28;20184;-72
2023/04/03 07:02:31;;;;;;;6.23;3.90;;;7.10;99.90;;;;;;5027212;28;20450;-71
2023/04/03 07:04:56;;;;;;;4.50;3.90;;;7.10;99.90;;;;;;5030686;28;20435;-71
2023/04/03 07:07:22;;;;;;;4.47;3.97;;;7.10;99.90;;;;;;5027376;28;20463;-71
2023/04/03 07:09:48;;;;;;;5.80;3.77;;;7.10;99.90;;;;;;5021390;28;21342;-70
2023/04/03 07:12:13;;;;;;;4.70;3.63;;;7.10;99.90;;;;;;5014488;28;20216;-68
2023/04/03 07:14:39;;;;;;;6.50;3.90;;;7.00;99.90;;;;;;5019042;28;20234;-66
2023/04/03 07:17:05;;;;;;;4.50;3.40;;;7.00;99.90;;;;;;5014880;28;20215;-66
2023/04/03 07:19:31;;;;;;;6.30;4.10;;;7.10;99.90;;;;;;5024024;28;20227;-68
2023/04/03 07:21:56;;;;;;;5.07;4.33;;;7.10;99.90;;;;;;5019089;28;20216;-69
2023/04/03 07:24:22;;;;;;;6.83;3.63;;;7.10;99.90;;;;;;5018354;28;20467;-67
2023/04/03 07:26:52;;;;;;;4.40;4.00;;;7.20;99.90;;;;;;5027049;28;20203;-67
2023/04/03 07:29:17;;;;;;;4.20;3.80;;;7.20;99.90;;;;;;5024531;28;20184;-68
2023/04/03 07:31:44;;;;;;;6.40;3.97;;;7.30;99.90;;;;;;5025492;28;20439;-68
2023/04/03 07:34:11;;;;;;;4.67;4.10;;;7.40;99.90;;;;;;5021554;28;20218;-69
2023/04/03 07:36:37;;;;;;;4.40;3.60;;;7.50;99.90;;;;;;5028500;28;20454;-67
2023/04/03 07:39:03;;;;;;;5.53;3.87;;;7.50;99.90;;;;;;5029620;28;20450;-68
2023/04/03 07:41:30;;;;;;;5.23;4.13;;;7.60;99.90;;;;;;5027933;28;20440;-66
2023/04/03 07:43:56;;;;;;;5.23;3.93;;;7.50;99.90;;;;;;5025711;28;20317;-66
2023/04/03 07:46:22;;;;;;;6.13;4.07;;;7.60;99.90;;;;;;5025280;28;20564;-68
2023/04/03 07:48:48;;;;;;;6.63;4.03;;;7.60;99.90;;;;;;5024307;28;20450;-68
2023/04/03 07:51:14;;;;;;;4.83;3.57;;;7.60;99.90;;;;;;5025023;28;20445;-67
2023/04/03 07:53:40;;;;;;;4.03;3.63;;;7.60;99.90;;;;;;5026175;28;20275;-68
2023/04/03 07:56:06;;;;;;;5.77;4.00;;;7.70;99.90;;;;;;5025133;28;20454;-67
2023/04/03 07:58:32;;;;;;;5.53;4.10;;;7.70;99.90;;;;;;5024334;28;21522;-69
2023/04/03 08:00:58;;;;;;;7.50;4.27;;;7.80;99.90;;;;;;5027291;28;20438;-66
2023/04/03 08:03:24;;;;;;;4.40;4.00;;;7.80;99.90;;;;;;5024646;28;20438;-66
2023/04/03 08:05:50;;;;;;;4.90;4.07;;;7.90;99.90;;;;;;5026554;28;20206;-66
2023/04/03 08:08:19;;;;;;;4.50;4.00;;;7.90;99.90;;;;;;5024892;28;20222;-66
2023/04/03 08:10:52;;;;;;;6.50;4.37;;;8.00;99.90;;;;;;5025726;28;21014;-68
2023/04/03 08:13:19;;;;;;;5.80;4.30;;;8.10;99.90;;;;;;5020819;28;20439;-66
2023/04/03 08:15:45;;;;;;;4.43;3.83;;;8.20;99.90;;;;;;5025538;28;20952;-66
2023/04/03 08:18:11;;;;;;;7.37;4.00;;;8.30;99.90;;;;;;5025794;28;20560;-66
2023/04/03 08:20:39;;;;;;;6.97;4.30;;;8.30;99.90;;;;;;5023546;28;20451;-66
2023/04/03 08:23:05;;;;;;;5.43;4.03;;;8.40;99.90;;;;;;5023687;28;20188;-66
2023/04/03 08:25:31;;;;;;;6.87;3.80;;;8.40;99.90;;;;;;5024264;28;20583;-67
2023/04/03 08:27:57;;;;;;;14.93;4.43;;;8.40;99.90;;;;;;5022345;28;20470;-66
2023/04/03 08:30:22;;;;;;;4.30;3.87;;;8.40;99.90;;;;;;5027003;28;20199;-67
2023/04/03 08:32:48;;;;;;;8.57;4.10;;;8.50;99.90;;;;;;5024131;28;20454;-67
2023/04/03 08:35:14;;;;;;;6.97;4.50;;;8.50;99.90;;;;;;5033189;28;21171;-67
2023/04/03 08:37:40;;;;;;;5.20;4.57;;;8.50;99.90;;;;;;5025341;28;20795;-70
2023/04/03 08:40:10;;;;;;;4.00;3.60;;;8.70;99.90;;;;;;5023326;28;20231;-70
2023/04/03 08:42:42;;;;;;;8.13;4.13;;;8.80;99.90;;;;;;5024844;28;20487;-69
2023/04/03 08:45:13;;;;;;;8.03;4.00;;;9.00;99.90;;;;;;5026530;28;20524;-69
2023/04/03 08:47:56;;;;;;;8.13;4.20;;;9.10;99.90;;;;;;5028611;28;20454;-68
2023/04/03 08:50:28;;;;;;;4.50;3.50;;;9.20;99.90;;;;;;5022835;28;20453;-69
2023/04/03 08:52:58;;;;;;;5.17;4.23;;;9.30;99.90;;;;;;5021325;28;20449;-68
2023/04/03 08:55:38;;;;;;;6.27;4.03;;;9.50;99.90;;;;;;5024662;28;20526;-67
2023/04/03 08:58:16;;;;;;;5.63;4.20;;;9.60;99.90;;;;;;5026331;28;20464;-67
2023/04/03 09:01:19;;;;;;;4.00;3.33;;;9.70;99.90;;;;;;5024034;28;20436;-69
2023/04/03 09:03:45;;;;;;;4.33;3.63;;;9.70;99.90;;;;;;5022751;28;20447;-69
2023/04/03 09:06:13;;;;;;;7.30;3.40;;;9.80;99.90;;;;;;5023553;28;20457;-66
2023/04/03 09:08:51;;;;;;;6.13;3.63;;;9.80;99.90;;;;;;5022594;28;20354;-67
2023/04/03 09:11:31;;;;;;;7.53;4.60;;;9.80;99.90;;;;;;5021200;28;20430;-67
2023/04/03 09:14:09;;;;;;;7.90;4.20;;;9.70;99.90;;;;;;5025339;28;20500;-68
2023/04/03 09:17:03;;;;;;;6.10;4.10;;;9.70;99.90;;;;;;5022414;28;21078;-69
2023/04/03 09:19:32;;;;;;;4.73;4.23;;;9.80;99.90;;;;;;5024095;28;20725;-70
2023/04/03 09:22:13;;;;;;;5.17;4.67;;;9.80;99.90;;;;;;5021992;28;20446;-70
2023/04/03 09:24:40;;;;;;;4.10;3.30;;;9.80;99.90;;;;;;5024356;28;20495;-69
2023/04/03 09:27:09;;;;;;;4.50;3.40;;;9.90;99.90;;;;;;5024233;28;20509;-69
2023/04/03 09:29:39;;;;;;;4.43;4.03;;;9.90;99.90;;;;;;5024005;28;20469;-69
2023/04/03 09:32:28;;;;;;;4.40;3.73;;;10.00;99.90;;;;;;5023239;28;20435;-69
2023/04/03 09:34:57;;;;;;;6.37;3.67;;;10.00;99.90;;;;;;5022727;28;20426;-69
2023/04/03 09:37:59;;;;;;;4.10;3.40;;;10.00;99.90;;;;;;5023139;28;21519;-68
2023/04/03 09:40:25;;;;;;;3.43;3.10;;;10.00;99.90;;;;;;5025732;28;20442;-68
2023/04/03 09:42:58;;;;;;;4.20;3.37;;;10.10;99.90;;;;;;5026955;28;20449;-68
2023/04/03 09:45:31;;;;;;;5.77;3.50;;;10.10;99.90;;;;;;5026485;28;20238;-68
2023/04/03 09:48:18;;;;;;;3.70;3.20;;;10.10;99.90;;;;;;5030963;28;20835;-68
2023/04/03 09:50:50;;;;;;;5.27;3.90;;;10.20;99.90;;;;;;5023705;28;20853;-69
2023/04/03 09:53:45;;;;;;;6.30;3.60;;;10.20;99.90;;;;;;5027884;28;20537;-69
2023/04/03 09:56:17;;;;;;;5.53;3.47;;;10.30;99.90;;;;;;5018963;28;21010;-68
2023/04/03 09:58:52;;;;;;;5.17;3.70;;;10.30;99.90;;;;;;5021418;28;20463;-69
2023/04/03 10:01:32;;;;;;;3.80;3.00;;;10.40;99.90;;;;;;5025043;28;20442;-68
2023/04/03 10:04:17;;;;;;;5.53;3.27;;;10.40;99.90;;;;;;5023569;28;20434;-69
2023/04/03 10:06:49;;;;;;;5.97;4.33;;;10.50;99.90;;;;;;5020210;28;20466;-69
2023/04/03 10:09:24;;;;;;;4.20;3.47;;;10.60;99.90;;;;;;5027759;28;20435;-71
2023/04/03 10:12:04;;;;;;;5.83;4.00;;;10.80;99.90;;;;;;5026480;28;20548;-71
2023/04/03 10:14:35;;;;;;;4.03;3.10;;;11.00;99.90;;;;;;5033283;28;20503;-67
2023/04/03 10:17:03;;;;;;;4.00;3.53;;;11.10;99.90;;;;;;5026513;28;20470;-67
2023/04/03 10:19:58;;;;;;;5.83;3.37;;;11.20;99.50;;;;;;5022389;28;20453;-66
2023/04/03 10:22:48;;;;;;;5.80;3.23;;;11.50;98.50;;;;;;5022408;28;20541;-68
2023/04/03 10:25:20;;;;;;;3.80;3.30;;;11.60;96.90;;;;;;5022998;28;20513;-67
2023/04/03 10:27:49;;;;;;;4.83;3.17;;;11.90;96.80;;;;;;5027538;28;20457;-68
2023/04/03 10:30:20;;;;;;;4.40;3.10;;;12.10;95.90;;;;;;5025111;28;20673;-68
2023/04/03 10:32:58;;;;;;;6.17;3.03;;;12.20;95.60;;;;;;5025616;28;20529;-67
2023/04/03 10:35:32;;;;;;;3.80;3.13;;;12.30;95.40;;;;;;5026737;28;20439;-67
2023/04/03 10:38:32;;;;;;;3.00;2.60;;;12.60;95.00;;;;;;5022517;28;20475;-66
2023/04/03 10:41:12;;;;;;;6.07;3.40;;;12.90;92.60;;;;;;5028473;28;21165;-67
2023/04/03 10:43:55;;;;;;;5.13;2.63;;;13.00;91.20;;;;;;5030317;28;20434;-68
2023/04/03 10:46:35;;;;;;;4.13;3.73;;;13.10;88.60;;;;;;5030759;28;20434;-68
2023/04/03 10:49:00;;;;;;;4.20;3.30;;;13.20;88.10;;;;;;5023450;28;20473;-68
2023/04/03 10:51:43;;;;;;;4.60;2.93;;;13.30;87.40;;;;;;5025028;28;20501;-72
2023/04/03 10:54:32;;;;;;;4.90;3.17;;;13.40;84.60;;;;;;5020333;28;20286;-71
2023/04/03 10:57:07;;;;;;;3.00;2.70;;;13.50;85.00;;;;;;5027210;28;20462;-68
2023/04/03 10:59:40;;;;;;;3.27;2.97;;;13.70;82.00;;;;;;5025049;28;20457;-66
2023/04/03 11:02:27;;;;;;;8.13;2.90;;;13.80;78.90;;;;;;5025741;28;20439;-70
2023/04/03 11:05:13;;;;;;;3.87;3.47;;;13.80;77.50;;;;;;5032915;28;20434;-70
2023/04/03 11:07:43;;;;;;;3.60;2.83;;;13.70;76.90;;;;;;5022986;28;20481;-70
2023/04/03 11:10:22;;;;;;;4.33;3.13;;;13.70;77.20;;;;;;5026406;28;20441;-70
2023/04/03 11:13:08;;;;;;;3.87;2.80;;;13.80;78.60;;;;;;5024871;28;20510;-71
2023/04/03 11:15:33;;;;;;;5.30;2.87;;;13.90;78.00;;;;;;5021810;28;20485;-70
2023/04/03 11:18:22;;;;;;;5.33;3.20;;;13.90;75.30;;;;;;5021940;28;20488;-70
2023/04/03 11:21:06;;;;;;;3.47;2.90;;;13.80;72.20;;;;;;5024718;28;20200;-70
2023/04/03 11:23:36;;;;;;;3.23;2.50;;;13.80;71.60;;;;;;5023946;28;20431;-70
2023/04/03 11:26:11;;;;;;;5.17;2.73;;;13.70;71.10;;;;;;5025211;28;20429;-70
2023/04/03 11:28:37;;;;;;;6.60;3.00;;;13.60;69.80;;;;;;5021151;28;20955;-70
2023/04/03 11:31:35;;;;;;;8.87;4.70;;;13.40;70.30;;;;;;5024887;28;20457;-70
2023/04/03 11:34:19;;;;;;;35.43;10.67;;;13.20;68.30;;;;;;5024232;28;20447;-71
2023/04/03 11:36:50;;;;;;;20.60;6.20;;;13.40;70.40;;;;;;5028763;28;20890;-69
2023/04/03 11:39:29;;;;;;;24.00;8.40;;;13.60;70.10;;;;;;5025452;28;20569;-71
2023/04/03 11:41:55;;;;;;;111.30;23.30;;;13.70;70.10;;;;;;5024192;28;20452;-74
2023/04/03 11:44:39;;;;;;;27.63;8.07;;;13.70;69.60;;;;;;5024377;28;20833;-74
2023/04/03 11:47:12;;;;;;;8.40;4.07;;;13.80;69.10;;;;;;5019508;28;20458;-74
2023/04/03 11:50:00;;;;;;;135.90;24.47;;;13.80;69.10;;;;;;5026471;28;20434;-77
2023/04/03 11:52:38;;;;;;;44.53;12.20;;;13.90;69.50;;;;;;5022156;28;20450;-70
2023/04/03 11:55:27;;;;;;;30.17;11.43;;;14.00;67.40;;;;;;5018690;28;20500;-69
2023/04/03 11:57:58;;;;;;;10.67;5.00;;;13.90;67.20;;;;;;5020930;28;20478;-71
2023/04/03 12:00:43;;;;;;;5.13;3.30;;;14.00;67.30;;;;;;5023973;28;20439;-72
2023/04/03 12:03:29;;;;;;;4.73;3.10;;;14.20;67.30;;;;;;5023982;28;20625;-71
2023/04/03 12:05:55;;;;;;;6.00;3.03;;;14.10;67.00;;;;;;5027209;28;20780;-72
2023/04/03 12:08:41;;;;;;;4.97;3.10;;;14.00;67.30;;;;;;5023719;28;20489;-66
2023/04/03 12:11:12;;;;;;;4.23;3.13;;;13.80;67.10;;;;;;5020018;28;20450;-68
2023/04/03 12:13:56;;;;;;;8.33;3.40;;;13.50;67.70;;;;;;5023694;28;20719;-65
2023/04/03 12:16:31;;;;;;;3.50;2.70;;;13.40;68.00;;;;;;5026544;28;21583;-67
2023/04/03 12:19:03;;;;;;;4.10;3.30;;;13.40;67.80;;;;;;5021370;28;20536;-67
2023/04/03 12:21:51;;;;;;;3.17;2.87;;;13.40;67.00;;;;;;5017326;28;21078;-67
2023/04/03 12:24:17;;;;;;;6.47;3.23;;;13.60;68.00;;;;;;5026975;28;20906;-67
2023/04/03 12:27:01;;;;;;;4.10;3.03;;;13.60;67.50;;;;;;5020964;28;20541;-69
2023/04/03 12:29:39;;;;;;;3.57;2.70;;;13.60;67.30;;;;;;5024037;28;20270;-68
2023/04/03 12:32:32;;;;;;;9.47;3.50;;;13.60;68.20;;;;;;5025386;28;20526;-68
2023/04/03 12:35:00;;;;;;;10.63;3.63;;;13.50;68.70;;;;;;5023097;28;20462;-68
2023/04/03 12:37:57;;;;;;;60.63;14.17;;;13.60;69.30;;;;;;5021642;28;20491;-70
2023/04/03 12:40:44;;;;;;;24.60;6.57;;;13.60;68.90;;;;;;5028487;28;20441;-69
2023/04/03 12:43:19;;;;;;;21.00;6.00;;;13.80;69.00;;;;;;5023622;28;20982;-69
2023/04/03 12:45:52;;;;;;;7.80;4.03;;;13.80;68.30;;;;;;5022902;28;20897;-69
2023/04/03 12:48:24;;;;;;;6.50;3.47;;;13.80;67.80;;;;;;5022700;28;20459;-69
2023/04/03 12:50:50;;;;;;;4.20;2.97;;;13.60;67.70;;;;;;5027060;28;20956;-69
2023/04/03 12:53:26;;;;;;;6.20;3.40;;;13.40;67.90;;;;;;5024791;28;20439;-70
2023/04/03 12:55:56;;;;;;;4.83;3.13;;;13.40;68.40;;;;;;5023346;28;20987;-67
2023/04/03 12:58:25;;;;;;;4.70;3.40;;;13.50;67.70;;;;;;5026093;28;21200;-68
2023/04/03 13:01:12;;;;;;;4.00;3.23;;;13.40;67.00;;;;;;5025302;28;20442;-68
2023/04/03 13:03:44;;;;;;;8.43;3.10;;;13.30;67.40;;;;;;5024587;28;20461;-66
2023/04/03 13:06:38;;;;;;;6.73;3.07;;;13.20;67.50;;;;;;5025007;28;21856;-66
2023/04/03 13:09:05;;;;;;;4.27;2.80;;;13.10;68.00;;;;;;5023728;28;20525;-67